createdAt,value
2022-08-18T00:01:05.771Z,20.71
2022-08-18T00:03:56.109Z,20.70
2022-08-18T00:06:21.263Z,20.69
2022-08-18T00:08:47.876Z,20.68
2022-08-18T00:11:15.246Z,20.66
2022-08-18T00:13:41.829Z,20.63
2022-08-18T00:16:08.445Z,20.61
2022-08-18T00:18:35.099Z,20.56
2022-08-18T00:21:02.311Z,20.50
2022-08-18T00:23:29.886Z,20.45
2022-08-18T00:26:00.340Z,20.38
2022-08-18T00:28:27.031Z,20.35
2022-08-18T00:30:54.270Z,20.28
2022-08-18T00:33:21.733Z,20.24
2022-08-18T00:35:49.192Z,20.17
2022-08-18T00:38:24.257Z,20.08
2022-08-18T00:40:52.853Z,19.99
2022-08-18T00:43:36.011Z,19.99
2022-08-18T00:46:06.047Z,19.94
2022-08-18T00:48:32.687Z,19.90
2022-08-18T00:51:08.249Z,19.82
2022-08-18T00:53:45.826Z,19.81
2022-08-18T00:56:20.717Z,19.82
2022-08-18T00:58:52.381Z,19.76
2022-08-18T01:01:23.560Z,19.81
2022-08-18T01:03:55.470Z,19.85
2022-08-18T01:06:37.443Z,19.81
2022-08-18T01:09:04.046Z,19.79
2022-08-18T01:11:45.952Z,19.75
2022-08-18T01:14:23.885Z,19.74
2022-08-18T01:17:11.550Z,19.67
2022-08-18T01:19:58.404Z,19.70
2022-08-18T01:22:31.442Z,19.68
2022-08-18T01:25:15.898Z,19.58
2022-08-18T01:27:43.247Z,19.59
2022-08-18T01:30:13.523Z,19.57
2022-08-18T01:32:41.067Z,19.55
2022-08-18T01:35:10.455Z,19.41
2022-08-18T01:37:37.777Z,19.45
2022-08-18T01:41:17.333Z,19.33
2022-08-18T01:42:56.506Z,19.23
2022-08-18T01:45:23.248Z,19.27
2022-08-18T01:47:50.677Z,19.22
2022-08-18T01:50:18.115Z,19.27
2022-08-18T01:52:45.254Z,19.31
2022-08-18T01:55:11.937Z,19.32
2022-08-18T01:57:44.953Z,19.30
2022-08-18T02:00:15.069Z,19.26
2022-08-18T02:02:43.108Z,19.17
2022-08-18T02:05:14.631Z,19.15
2022-08-18T02:07:41.284Z,19.07
2022-08-18T02:10:12.181Z,19.12
2022-08-18T02:12:44.321Z,19.06
2022-08-18T02:15:14.281Z,19.09
2022-08-18T02:17:43.418Z,19.05
2022-08-18T02:20:13.431Z,18.92
2022-08-18T02:22:40.994Z,18.85
2022-08-18T02:25:09.072Z,18.75
2022-08-18T02:27:35.858Z,18.64
2022-08-18T02:30:07.175Z,18.68
2022-08-18T02:32:34.662Z,18.52
2022-08-18T02:35:02.255Z,18.44
2022-08-18T02:37:31.131Z,18.45
2022-08-18T02:39:58.044Z,18.49
2022-08-18T02:42:25.793Z,18.47
2022-08-18T02:44:52.369Z,18.46
2022-08-18T02:47:21.105Z,18.52
2022-08-18T02:49:48.303Z,18.46
2022-08-18T02:52:17.342Z,18.50
2022-08-18T02:54:44.132Z,18.55
2022-08-18T02:57:12.378Z,18.59
2022-08-18T02:59:40.642Z,18.64
2022-08-18T03:02:09.218Z,18.47
2022-08-18T03:04:36.240Z,18.34
2022-08-18T03:07:05.938Z,18.32
2022-08-18T03:09:33.148Z,18.41
2022-08-18T03:12:00.512Z,18.47
2022-08-18T03:14:27.818Z,18.48
2022-08-18T03:16:55.343Z,18.45
2022-08-18T03:19:24.233Z,18.24
2022-08-18T03:21:51.097Z,18.14
2022-08-18T03:24:22.860Z,18.20
2022-08-18T03:26:51.738Z,18.29
2022-08-18T03:29:22.370Z,18.32
2022-08-18T03:31:49.727Z,18.23
2022-08-18T03:37:31.993Z,18.28
2022-08-18T03:39:59.217Z,18.29
2022-08-18T03:42:25.883Z,18.20
2022-08-18T03:44:52.526Z,18.19
2022-08-18T03:47:19.273Z,18.22
2022-08-18T03:49:46.040Z,18.30
2022-08-18T03:52:12.735Z,18.42
2022-08-18T03:54:39.704Z,18.51
2022-08-18T03:57:09.545Z,18.60
2022-08-18T03:59:36.488Z,18.58
2022-08-18T04:02:05.097Z,18.57
2022-08-18T04:04:32.351Z,18.57
2022-08-18T04:07:04.583Z,18.54
2022-08-18T04:09:32.961Z,18.45
2022-08-18T04:12:06.948Z,18.42
2022-08-18T04:14:33.606Z,18.42
2022-08-18T04:17:00.308Z,18.38
2022-08-18T04:19:27.982Z,18.40
2022-08-18T04:21:57.410Z,18.33
2022-08-18T04:24:26.586Z,18.36
2022-08-18T04:26:56.992Z,18.36
2022-08-18T04:29:24.086Z,18.39
2022-08-18T04:31:52.176Z,18.51
2022-08-18T04:34:20.826Z,18.47
2022-08-18T04:36:48.345Z,18.52
2022-08-18T04:39:15.717Z,18.54
2022-08-18T04:41:43.932Z,18.74
2022-08-18T04:44:12.321Z,18.71
2022-08-18T04:46:42.434Z,18.71
2022-08-18T04:49:10.744Z,18.75
2022-08-18T04:52:30.982Z,18.78
2022-08-18T04:54:29.104Z,18.82
2022-08-18T04:56:55.882Z,18.80
2022-08-18T04:59:22.631Z,18.89
2022-08-18T05:01:49.229Z,18.88
2022-08-18T05:04:17.504Z,18.87
2022-08-18T05:06:45.656Z,18.84
2022-08-18T05:09:16.713Z,18.84
2022-08-18T05:11:50.497Z,18.85
2022-08-18T05:14:17.814Z,18.92
2022-08-18T05:16:48.646Z,19.11
2022-08-18T05:19:23.399Z,19.53
2022-08-18T05:21:59.968Z,19.79
2022-08-18T05:24:36.824Z,19.88
2022-08-18T05:27:07.436Z,20.04
2022-08-18T05:29:41.908Z,20.09
2022-08-18T05:32:37.135Z,20.15
2022-08-18T05:35:09.518Z,20.20
2022-08-18T05:37:40.396Z,20.28
2022-08-18T05:40:11.399Z,20.31
2022-08-18T05:42:40.510Z,20.33
2022-08-18T05:45:12.565Z,20.46
2022-08-18T05:47:39.392Z,20.48
2022-08-18T05:50:11.356Z,20.56
2022-08-18T05:52:54.299Z,20.54
2022-08-18T05:55:52.642Z,20.53
2022-08-18T05:58:33.204Z,20.61
2022-08-18T06:01:14.036Z,20.70
2022-08-18T06:03:47.734Z,20.83
2022-08-18T06:06:20.935Z,20.83
2022-08-18T06:08:57.668Z,20.93
2022-08-18T06:11:25.909Z,21.06
2022-08-18T06:13:59.657Z,21.09
2022-08-18T06:16:39.335Z,21.09
2022-08-18T06:19:19.306Z,21.01
2022-08-18T06:22:02.186Z,21.04
2022-08-18T06:24:50.128Z,21.06
2022-08-18T06:27:33.318Z,21.15
2022-08-18T06:30:18.092Z,21.21
2022-08-18T06:32:46.793Z,21.27
2022-08-18T06:35:49.423Z,21.35
2022-08-18T06:38:38.812Z,21.40
2022-08-18T06:41:40.732Z,21.42
2022-08-18T06:44:10.231Z,21.47
2022-08-18T06:46:41.958Z,21.47
2022-08-18T06:49:13.011Z,21.57
2022-08-18T06:51:41.040Z,21.55
2022-08-18T06:54:26.920Z,21.63
2022-08-18T06:56:55.816Z,21.66
2022-08-18T06:59:29.391Z,21.78
2022-08-18T07:02:16.955Z,21.84
2022-08-18T07:05:00.403Z,21.94
2022-08-18T07:07:43.365Z,22.10
2022-08-18T07:10:31.290Z,22.10
2022-08-18T07:13:13.143Z,22.22
2022-08-18T07:15:40.760Z,22.28
2022-08-18T07:18:08.770Z,22.32
2022-08-18T07:20:53.983Z,22.25
2022-08-18T07:23:39.267Z,22.22
2022-08-18T07:26:18.107Z,22.21
2022-08-18T07:28:47.731Z,22.23
2022-08-18T07:31:40.716Z,22.30
2022-08-18T07:34:13.306Z,22.27
2022-08-18T07:36:47.615Z,22.41
2022-08-18T07:39:23.551Z,22.43
2022-08-18T07:42:01.956Z,22.38
2022-08-18T07:44:45.228Z,22.45
2022-08-18T07:47:26.419Z,22.49
2022-08-18T07:50:17.042Z,22.54
2022-08-18T07:52:51.079Z,22.59
2022-08-18T07:55:28.984Z,22.54
2022-08-18T07:58:30.741Z,22.74
2022-08-18T08:01:09.793Z,22.66
2022-08-18T08:03:37.632Z,22.68
2022-08-18T08:06:13.331Z,22.68
2022-08-18T08:08:44.195Z,22.63
2022-08-18T08:11:18.825Z,22.67
2022-08-18T08:14:01.932Z,22.62
2022-08-18T08:16:46.494Z,22.73
2022-08-18T08:19:14.120Z,22.83
2022-08-18T08:21:52.810Z,22.91
2022-08-18T08:24:32.357Z,22.99
2022-08-18T08:27:12.020Z,22.84
2022-08-18T08:29:59.814Z,22.87
2022-08-18T08:32:34.480Z,22.82
2022-08-18T08:35:06.302Z,23.01
2022-08-18T08:37:45.619Z,23.12
2022-08-18T08:40:33.096Z,23.18
2022-08-18T08:43:14.828Z,23.04
2022-08-18T08:45:48.760Z,23.15
2022-08-18T08:48:20.478Z,23.18
2022-08-18T08:50:54.582Z,23.17
2022-08-18T08:53:23.364Z,23.29
2022-08-18T08:56:00.153Z,23.27
2022-08-18T08:58:28.978Z,23.41
2022-08-18T09:00:56.414Z,23.62
2022-08-18T09:03:31.711Z,23.58
2022-08-18T09:06:30.269Z,23.68
2022-08-18T09:09:17.901Z,23.93
2022-08-18T09:12:06.962Z,23.90
2022-08-18T09:14:58.529Z,24.06
2022-08-18T09:17:33.802Z,24.20
2022-08-18T09:20:16.645Z,24.26
2022-08-18T09:23:13.835Z,24.42
2022-08-18T09:25:42.112Z,24.60
2022-08-18T09:28:32.826Z,24.68
2022-08-18T09:31:19.894Z,24.53
2022-08-18T09:33:53.916Z,24.55
2022-08-18T09:36:31.185Z,24.56
2022-08-18T09:39:31.471Z,24.89
2022-08-18T09:42:07.132Z,24.96
2022-08-18T09:44:54.534Z,25.15
2022-08-18T09:47:21.732Z,25.29
2022-08-18T09:49:55.565Z,25.42
2022-08-18T09:52:24.356Z,25.31
2022-08-18T09:55:00.482Z,25.45
2022-08-18T09:57:30.481Z,25.46
2022-08-18T10:00:12.250Z,25.52
2022-08-18T10:02:40.234Z,25.70
2022-08-18T10:05:27.077Z,26.05
2022-08-18T10:08:30.080Z,26.21
2022-08-18T10:11:16.514Z,26.37
2022-08-18T10:14:07.367Z,26.57
2022-08-18T10:17:21.826Z,26.46
2022-08-18T10:20:06.004Z,26.40
2022-08-18T10:22:49.369Z,26.41
2022-08-18T10:25:38.867Z,26.51
2022-08-18T10:28:10.128Z,26.56
2022-08-18T10:30:56.663Z,26.66
2022-08-18T10:33:55.472Z,26.53
2022-08-18T10:36:37.429Z,26.47
2022-08-18T10:39:13.650Z,26.47
2022-08-18T10:41:54.988Z,26.60
2022-08-18T10:47:20.548Z,26.82
2022-08-18T10:49:52.730Z,26.94
2022-08-18T10:52:46.155Z,26.99
2022-08-18T10:55:48.589Z,27.08
2022-08-18T10:58:38.467Z,27.55
2022-08-18T11:01:10.049Z,27.77
2022-08-18T11:03:51.245Z,27.71
2022-08-18T11:06:26.119Z,27.67
2022-08-18T11:08:57.968Z,27.60
2022-08-18T11:11:41.003Z,27.88
2022-08-18T11:14:35.709Z,28.00
2022-08-18T11:17:26.479Z,28.04
2022-08-18T11:19:54.797Z,28.15
2022-08-18T11:22:33.014Z,28.36
2022-08-18T11:25:04.346Z,28.38
2022-08-18T11:27:35.912Z,28.22
2022-08-18T11:30:06.507Z,28.33
2022-08-18T11:32:37.134Z,28.59
2022-08-18T11:35:10.659Z,28.62
2022-08-18T11:37:54.780Z,28.78
2022-08-18T11:43:29.900Z,29.13
2022-08-18T11:49:33.443Z,29.12
2022-08-18T11:52:25.015Z,29.29
2022-08-18T11:55:16.904Z,29.49
2022-08-18T11:57:59.187Z,29.54
2022-08-18T12:00:43.233Z,29.55
2022-08-18T12:03:28.467Z,29.59
2022-08-18T12:06:01.055Z,29.59
2022-08-18T12:09:01.539Z,29.48
2022-08-18T12:11:31.423Z,29.22
2022-08-18T12:16:50.219Z,29.32
2022-08-18T12:19:19.530Z,29.54
2022-08-18T12:21:52.469Z,29.73
2022-08-18T12:24:36.727Z,29.71
2022-08-18T12:27:20.653Z,29.64
2022-08-18T12:29:49.401Z,29.79
2022-08-18T12:35:09.128Z,29.63
2022-08-18T12:40:25.482Z,29.35
2022-08-18T12:42:55.693Z,29.57
2022-08-18T12:45:41.396Z,29.61
2022-08-18T12:48:09.236Z,29.45
2022-08-18T12:53:30.538Z,29.56
2022-08-18T12:56:12.544Z,29.58
2022-08-18T12:58:40.572Z,29.69
2022-08-18T13:01:07.545Z,29.88
2022-08-18T13:06:23.902Z,30.04
2022-08-18T13:08:55.437Z,30.04
2022-08-18T13:11:25.131Z,30.07
2022-08-18T13:13:55.970Z,29.91
2022-08-18T13:16:39.056Z,29.74
2022-08-18T13:19:15.069Z,29.78
2022-08-18T13:21:43.028Z,29.76
2022-08-18T13:24:12.672Z,29.57
2022-08-18T13:26:45.787Z,29.45
2022-08-18T13:29:14.510Z,29.42
2022-08-18T13:31:41.170Z,29.69
2022-08-18T13:34:19.317Z,29.70
2022-08-18T13:36:48.215Z,29.56
2022-08-18T13:39:19.300Z,29.67
2022-08-18T13:41:48.761Z,29.62
2022-08-18T13:44:18.890Z,29.70
2022-08-18T13:46:48.899Z,29.60
2022-08-18T13:49:18.614Z,29.68
2022-08-18T13:51:59.157Z,29.53
2022-08-18T13:54:33.975Z,29.46
2022-08-18T13:57:03.313Z,29.48
2022-08-18T13:59:33.145Z,29.42
2022-08-18T14:02:05.874Z,29.33
2022-08-18T14:04:36.257Z,29.33
2022-08-18T14:07:08.899Z,29.38
2022-08-18T14:09:37.945Z,29.35
2022-08-18T14:12:21.625Z,29.29
2022-08-18T14:14:57.291Z,29.21
2022-08-18T14:17:28.429Z,29.37
2022-08-18T14:20:14.874Z,29.21
2022-08-18T14:22:57.486Z,29.41
2022-08-18T14:25:39.844Z,29.36
2022-08-18T14:28:06.613Z,29.14
2022-08-18T14:30:34.273Z,29.07
2022-08-18T14:33:01.155Z,29.05
2022-08-18T14:35:34.643Z,29.01
2022-08-18T14:38:16.293Z,28.91
2022-08-18T14:40:45.378Z,28.89
2022-08-18T14:43:14.503Z,28.79
2022-08-18T14:45:47.432Z,28.49
2022-08-18T14:48:18.740Z,28.50
2022-08-18T14:50:49.757Z,28.41
2022-08-18T14:53:20.330Z,28.30
2022-08-18T14:55:49.446Z,28.28
2022-08-18T14:58:16.549Z,28.10
2022-08-18T15:00:53.320Z,28.07
2022-08-18T15:03:28.191Z,27.95
2022-08-18T15:05:58.045Z,27.78
2022-08-18T15:08:26.300Z,27.60
2022-08-18T15:10:53.853Z,27.38
2022-08-18T15:13:26.304Z,27.21
2022-08-18T15:15:53.653Z,27.34
2022-08-18T15:18:22.635Z,27.30
2022-08-18T15:21:10.511Z,27.00
2022-08-18T15:24:01.623Z,26.70
2022-08-18T15:26:28.261Z,26.66
2022-08-18T15:29:00.224Z,26.35
2022-08-18T15:34:14.987Z,26.06
2022-08-18T15:36:48.068Z,25.85
2022-08-18T15:39:15.261Z,25.76
2022-08-18T15:41:46.604Z,25.49
2022-08-18T15:44:17.129Z,25.25
2022-08-18T15:46:47.306Z,25.18
2022-08-18T15:49:21.756Z,25.15
2022-08-18T15:51:50.404Z,25.06
2022-08-18T15:54:27.833Z,25.19
2022-08-18T15:56:57.747Z,25.02
2022-08-18T15:59:49.737Z,24.91
2022-08-18T16:02:22.112Z,24.79
2022-08-18T16:04:50.545Z,24.98
2022-08-18T16:07:17.822Z,24.90
2022-08-18T16:09:58.585Z,24.90
2022-08-18T16:12:25.215Z,24.75
2022-08-18T16:14:53.322Z,24.86
2022-08-18T16:17:48.674Z,24.83
2022-08-18T16:20:18.609Z,24.93
2022-08-18T16:22:46.914Z,24.97
2022-08-18T16:25:14.926Z,25.07
2022-08-18T16:27:50.131Z,25.03
2022-08-18T16:30:23.100Z,25.00
2022-08-18T16:32:56.628Z,24.98
2022-08-18T16:35:25.665Z,24.87
2022-08-18T16:37:52.564Z,24.77
2022-08-18T16:40:20.406Z,24.72
2022-08-18T16:42:47.957Z,24.56
2022-08-18T16:45:21.692Z,24.53
2022-08-18T16:47:48.529Z,24.46
2022-08-18T16:50:18.235Z,24.48
2022-08-18T16:52:45.021Z,24.48
2022-08-18T16:55:16.363Z,24.47
2022-08-18T16:57:59.787Z,24.41
2022-08-18T17:00:43.626Z,24.38
2022-08-18T17:03:25.647Z,24.29
2022-08-18T17:06:10.891Z,24.29
2022-08-18T17:08:38.928Z,24.33
2022-08-18T17:11:09.569Z,24.27
2022-08-18T17:13:45.702Z,24.28
2022-08-18T17:16:13.540Z,24.21
2022-08-18T17:18:41.459Z,24.16
2022-08-18T17:21:12.789Z,24.08
2022-08-18T17:23:41.984Z,24.05
2022-08-18T17:26:16.484Z,24.00
2022-08-18T17:28:52.596Z,23.94
2022-08-18T17:31:24.499Z,23.91
2022-08-18T17:33:54.847Z,23.86
2022-08-18T17:36:32.875Z,23.81
2022-08-18T17:39:02.940Z,23.81
2022-08-18T17:41:29.693Z,23.76
2022-08-18T17:44:00.853Z,23.73
2022-08-18T17:46:38.321Z,23.68
2022-08-18T17:49:45.889Z,23.60
2022-08-18T17:52:14.932Z,23.54
2022-08-18T17:54:49.639Z,23.49
2022-08-18T17:57:23.956Z,23.43
2022-08-18T17:59:57.984Z,23.38
2022-08-18T18:02:29.142Z,23.32
2022-08-18T18:05:00.687Z,23.29
2022-08-18T18:07:29.686Z,23.26
2022-08-18T18:10:03.063Z,23.24
2022-08-18T18:12:32.261Z,23.19
2022-08-18T18:15:00.630Z,23.13
2022-08-18T18:17:37.843Z,23.12
2022-08-18T18:20:32.893Z,23.01
2022-08-18T18:23:21.626Z,22.96
2022-08-18T18:25:50.275Z,22.92
2022-08-18T18:28:33.862Z,22.89
2022-08-18T18:31:22.267Z,22.86
2022-08-18T18:33:56.900Z,22.84
2022-08-18T18:36:40.333Z,22.78
2022-08-18T18:39:10.645Z,22.77
2022-08-18T18:41:40.615Z,22.72
2022-08-18T18:44:10.863Z,22.69
2022-08-18T18:47:12.718Z,22.60
2022-08-18T18:49:46.855Z,22.63
2022-08-18T18:52:14.511Z,22.55
2022-08-18T18:54:53.770Z,22.50
2022-08-18T18:57:35.086Z,22.44
2022-08-18T19:00:22.709Z,22.41
2022-08-18T19:03:21.723Z,22.39
2022-08-18T19:06:03.606Z,22.31
2022-08-18T19:08:42.585Z,22.31
2022-08-18T19:11:16.004Z,22.28
2022-08-18T19:13:49.499Z,22.21
2022-08-18T19:16:36.671Z,22.20
2022-08-18T19:19:35.555Z,22.16
2022-08-18T19:22:24.217Z,22.15
2022-08-18T19:25:00.579Z,22.13
2022-08-18T19:27:35.137Z,22.07
2022-08-18T19:30:11.875Z,21.99
2022-08-18T19:32:47.826Z,21.96
2022-08-18T19:35:19.888Z,21.95
2022-08-18T19:38:04.950Z,21.96
2022-08-18T19:40:42.611Z,21.94
2022-08-18T19:43:12.715Z,21.93
2022-08-18T19:45:55.463Z,21.90
2022-08-18T19:48:37.537Z,21.87
2022-08-18T19:51:13.879Z,21.84
2022-08-18T19:54:04.391Z,21.77
2022-08-18T19:56:46.349Z,21.63
2022-08-18T19:59:35.035Z,21.68
2022-08-18T20:02:41.800Z,21.65
2022-08-18T20:05:30.649Z,21.63
2022-08-18T20:08:25.791Z,21.60
2022-08-18T20:11:15.150Z,21.56
2022-08-18T20:13:44.699Z,21.45
2022-08-18T20:16:28.533Z,21.23
2022-08-18T20:19:30.673Z,21.28
2022-08-18T20:22:05.320Z,21.26
2022-08-18T20:24:44.515Z,21.13
2022-08-18T20:27:32.925Z,21.09
2022-08-18T20:30:26.543Z,20.82
2022-08-18T20:33:08.603Z,20.69
2022-08-18T20:35:53.851Z,20.75
2022-08-18T20:38:32.630Z,20.75
2022-08-18T20:41:40.305Z,20.60
2022-08-18T20:44:42.292Z,20.45
2022-08-18T20:47:24.092Z,20.46
2022-08-18T20:50:21.170Z,20.51
2022-08-18T20:52:47.690Z,20.35
2022-08-18T20:55:27.351Z,20.25
2022-08-18T20:58:05.487Z,20.27
2022-08-18T21:00:36.225Z,20.28
2022-08-18T21:03:11.760Z,20.08
2022-08-18T21:05:44.127Z,19.88
2022-08-18T21:08:29.443Z,19.94
2022-08-18T21:11:08.239Z,19.94
2022-08-18T21:13:47.746Z,19.93
2022-08-18T21:16:38.250Z,19.93
2022-08-18T21:19:23.429Z,19.88
2022-08-18T21:21:55.072Z,19.90
2022-08-18T21:24:29.509Z,19.92
2022-08-18T21:27:02.546Z,19.76
2022-08-18T21:29:46.907Z,19.63
2022-08-18T21:32:22.696Z,19.60
2022-08-18T21:34:49.949Z,19.61
2022-08-18T21:37:18.926Z,19.70
2022-08-18T21:39:58.017Z,19.65
2022-08-18T21:42:29.738Z,19.64
2022-08-18T21:45:00.920Z,19.66
2022-08-18T21:47:35.689Z,19.68
2022-08-18T21:50:15.809Z,19.71
2022-08-18T21:53:05.423Z,19.53
2022-08-18T21:55:37.421Z,19.25
2022-08-18T22:01:26.006Z,19.23
2022-08-18T22:04:40.992Z,19.34
2022-08-18T22:07:34.647Z,19.24
2022-08-18T22:10:46.105Z,19.16
2022-08-18T22:13:44.211Z,19.04
2022-08-18T22:16:30.792Z,19.02
2022-08-18T22:19:16.509Z,18.85
2022-08-18T22:22:45.472Z,18.91
2022-08-18T22:25:22.727Z,18.83
2022-08-18T22:27:50.397Z,18.86
2022-08-18T22:30:18.068Z,18.88
2022-08-18T22:32:46.409Z,18.80
2022-08-18T22:35:13.066Z,18.59
2022-08-18T22:37:48.706Z,18.49
2022-08-18T22:40:17.485Z,18.45
2022-08-18T22:42:51.305Z,18.46
2022-08-18T22:45:18.881Z,18.38
2022-08-18T22:47:46.648Z,18.21
2022-08-18T22:50:14.093Z,18.26
2022-08-18T22:52:46.618Z,18.42
2022-08-18T22:55:18.374Z,18.53
2022-08-18T22:57:50.276Z,18.61
2022-08-18T23:00:21.990Z,18.69
2022-08-18T23:02:49.654Z,18.75
2022-08-18T23:05:16.508Z,18.78
2022-08-18T23:07:46.155Z,18.88
2022-08-18T23:10:14.037Z,18.88
2022-08-18T23:12:43.242Z,18.90
2022-08-18T23:15:11.839Z,18.83
2022-08-18T23:17:40.280Z,18.92
2022-08-18T23:20:11.508Z,18.78
2022-08-18T23:22:39.641Z,18.70
2022-08-18T23:25:09.114Z,18.65
2022-08-18T23:27:36.608Z,18.58
2022-08-18T23:30:04.868Z,18.57
2022-08-18T23:32:39.030Z,18.57
2022-08-18T23:35:15.060Z,18.55
2022-08-18T23:37:42.689Z,18.58
2022-08-18T23:40:15.894Z,18.46
2022-08-18T23:42:42.695Z,18.39
2022-08-18T23:45:10.361Z,18.16
2022-08-18T23:47:37.042Z,18.14
2022-08-18T23:50:08.438Z,18.12
2022-08-18T23:52:35.085Z,18.19
2022-08-18T23:55:09.670Z,18.24
2022-08-18T23:57:36.679Z,18.32
